Time;durP1;ratioP1;P1;durP2;ratioP2;P2;SDS_P1;SDS_P2;PMS_P1;PMS_P2;Temp;Humidity;BMP_temperature;BMP_pressure;BME280_temperature;BME280_humidity;BME280_pressure;Samples;Min_cycle;Max_cycle;Signal;HPM_P1;HPM_P2
2023/06/09 00:01:35;;;;;;;;;;;;;;;;;;5024504;28;20285;-49
2023/06/09 05:09:42;;;;;;;;;;;;;;;;;;5025647;28;19928;-48
2023/06/09 05:12:08;;;;;;;;;;;;;;;;;;5032263;28;19917;-47
2023/06/09 05:14:34;;;;;;;;;;;;;;;;;;5032155;28;19909;-47
2023/06/09 05:17:02;;;;;;;;;;;;;;;;;;5032200;28;19951;-48
2023/06/09 05:19:28;;;;;;;;;;;;;;;;;;5031154;28;19923;-47
2023/06/09 05:21:56;;;;;;;;;;;;;;;;;;5032429;28;19995;-47
2023/06/09 05:24:22;;;;;;;;;;;;;;;;;;5034379;28;19983;-49
2023/06/09 05:26:48;;;;;;;;;;;;;;;;;;5032612;28;20562;-47
2023/06/09 05:29:14;;;;;;;;;;;;;;;;;;5031824;28;20003;-47
2023/06/09 05:31:40;;;;;;;;;;;;;;;;;;5031380;28;19936;-52
2023/06/09 05:34:06;;;;;;;;;;;;;;;;;;5031867;28;19917;-49
2023/06/09 05:36:32;;;;;;;;;;;;;;;;;;5031734;28;19913;-49
2023/06/09 05:38:59;;;;;;;;;;;;;;;;;;5031833;28;19909;-48
2023/06/09 05:41:25;;;;;;;;;;;;;;;;;;5030822;28;19997;-50
2023/06/09 05:43:52;;;;;;;;;;;;;;;;;;5029997;28;20311;-47
2023/06/09 05:46:18;;;;;;;;;;;;;;;;;;5031760;28;20414;-51
2023/06/09 05:48:43;;;;;;;;;;;;;;;;;;5031206;28;19944;-52
2023/06/09 05:51:09;;;;;;;;;;;;;;;;;;5012428;28;19914;-51
2023/06/09 05:53:35;;;;;;;;;;;;;;;;;;5031649;28;19971;-52
2023/06/09 05:56:02;;;;;;;;;;;;;;;;;;5031578;28;19920;-49
2023/06/09 05:58:33;;;;;;;;;;;;;;;;;;5031278;28;20475;-48
2023/06/09 06:00:59;;;;;;;;;;;;;;;;;;5031390;28;19913;-48
2023/06/09 06:03:27;;;;;;;;;;;;;;;;;;5029235;28;19914;-51
2023/06/09 06:05:52;;;;;;;;;;;;;;;;;;5031254;28;20423;-48
2023/06/09 06:08:18;;;;;;;;;;;;;;;;;;5031230;28;20003;-51
2023/06/09 06:10:44;;;;;;;;;;;;;;;;;;5027609;28;19921;-50
2023/06/09 06:13:10;;;;;;;;;;;;;;;;;;5030646;28;20012;-49
2023/06/09 06:15:36;;;;;;;;;;;;;;;;;;5027974;28;19971;-50
2023/06/09 06:18:02;;;;;;;;;;;;;;;;;;5031523;28;19967;-49
2023/06/09 06:20:29;;;;;;;;;;;;;;;;;;5026244;28;19946;-49
2023/06/09 06:22:55;;;;;;;;;;;;;;;;;;5028433;28;19924;-50
2023/06/09 06:25:21;;;;;;;;;;;;;;;;;;5038149;28;19917;-50
2023/06/09 06:27:47;;;;;;;;;;;;;;;;;;5027695;28;19999;-50
2023/06/09 06:30:13;;;;;;;;;;;;;;;;;;5013746;28;20095;-50
2023/06/09 06:32:39;;;;;;;;;;;;;;;;;;5030404;28;19920;-50
2023/06/09 06:35:09;;;;;;;;;;;;;;;;;;5030500;28;19920;-52
2023/06/09 06:37:35;;;;;;;;;;;;;;;;;;5031740;28;19909;-48
2023/06/09 06:40:01;;;;;;;;;;;;;;;;;;5029974;28;20511;-48
2023/06/09 06:42:27;;;;;;;;;;;;;;;;;;5033087;28;19936;-48
2023/06/09 06:44:53;;;;;;;;;;;;;;;;;;5044293;28;19920;-49
2023/06/09 06:47:19;;;;;;;;;;;;;;;;;;5031142;28;19917;-48
2023/06/09 06:49:45;;;;;;;;;;;;;;;;;;5030838;28;19975;-47
2023/06/09 06:52:11;;;;;;;;;;;;;;;;;;5031373;28;20599;-49
2023/06/09 06:54:37;;;;;;;;;;;;;;;;;;5031401;28;19917;-48
2023/06/09 06:57:03;;;;;;;;;;;;;;;;;;5031180;28;19913;-50
2023/06/09 06:59:29;;;;;;;;;;;;;;;;;;5032251;28;19936;-50
2023/06/09 07:01:55;;;;;;;;;;;;;;;;;;5020974;28;19960;-48
2023/06/09 07:04:21;;;;;;;;;;;;;;;;;;5025535;28;19917;-48
2023/06/09 07:06:47;;;;;;;;;;;;;;;;;;5031273;28;19924;-48
2023/06/09 07:09:13;;;;;;;;;;;;;;;;;;5025601;28;19917;-50
2023/06/09 07:11:43;;;;;;;;;;;;;;;;;;5027085;28;19956;-47
2023/06/09 07:14:09;;;;;;;;;;;;;;;;;;5027226;28;20350;-48
2023/06/09 07:16:35;;;;;;;;;;;;;;;;;;5021300;28;19914;-48
2023/06/09 07:19:01;;;;;;;;;;;;;;;;;;5023794;28;20012;-51
2023/06/09 07:21:31;;;;;;;;;;;;;;;;;;5028083;28;19917;-50
2023/06/09 07:23:57;;;;;;;;;;;;;;;;;;5027829;28;19920;-48
2023/06/09 07:26:23;;;;;;;;;;;;;;;;;;5027920;28;19975;-50
2023/06/09 07:28:49;;;;;;;;;;;;;;;;;;5027308;28;19917;-49
2023/06/09 07:31:15;;;;;;;;;;;;;;;;;;5027962;28;19909;-47
2023/06/09 07:33:41;;;;;;;;;;;;;;;;;;5027491;28;19964;-52
2023/06/09 07:36:11;;;;;;;;;;;;;;;;;;5028292;28;19951;-49
2023/06/09 07:38:38;;;;;;;;;;;;;;;;;;5028440;28;19913;-47
2023/06/09 07:41:04;;;;;;;;;;;;;;;;;;5027906;28;19913;-48
2023/06/09 07:43:30;;;;;;;;;;;;;;;;;;5027601;28;20529;-49
2023/06/09 07:45:56;;;;;;;;;;;;;;;;;;5027694;28;19909;-48
2023/06/09 07:48:22;;;;;;;;;;;;;;;;;;5026624;28;19921;-50
2023/06/09 07:50:48;;;;;;;;;;;;;;;;;;5027768;28;19910;-46
2023/06/09 07:53:14;;;;;;;;;;;;;;;;;;5027722;28;19909;-49
2023/06/09 07:55:40;;;;;;;;;;;;;;;;;;5009791;28;19920;-49
2023/06/09 07:58:06;;;;;;;;;;;;;;;;;;5029724;28;19913;-47
2023/06/09 08:00:32;;;;;;;;;;;;;;;;;;5047146;28;19919;-49
2023/06/09 08:03:00;;;;;;;;;;;;;;;;;;5035019;28;19922;-49
2023/06/09 08:05:26;;;;;;;;;;;;;;;;;;5029489;28;19913;-49
2023/06/09 08:07:52;;;;;;;;;;;;;;;;;;5031233;28;19924;-51
2023/06/09 08:10:19;;;;;;;;;;;;;;;;;;5025355;28;19925;-49
2023/06/09 08:12:45;;;;;;;;;;;;;;;;;;5026964;28;20002;-49
2023/06/09 08:15:11;;;;;;;;;;;;;;;;;;5026412;28;20368;-48
2023/06/09 08:17:37;;;;;;;;;;;;;;;;;;5026538;28;20015;-50
2023/06/09 08:20:03;;;;;;;;;;;;;;;;;;5026367;28;19917;-51
2023/06/09 08:22:30;;;;;;;;;;;;;;;;;;5026521;28;20124;-46
2023/06/09 08:24:56;;;;;;;;;;;;;;;;;;5025261;28;19918;-46
2023/06/09 08:27:23;;;;;;;;;;;;;;;;;;5024072;28;19918;-49
2023/06/09 08:29:50;;;;;;;;;;;;;;;;;;5025633;28;19924;-47
2023/06/09 08:32:16;;;;;;;;;;;;;;;;;;5025914;28;20004;-50
2023/06/09 08:34:42;;;;;;;;;;;;;;;;;;5028742;28;19924;-51
2023/06/09 08:37:08;;;;;;;;;;;;;;;;;;5046889;28;19913;-50
2023/06/09 08:39:34;;;;;;;;;;;;;;;;;;5047296;28;19909;-50
2023/06/09 08:42:00;;;;;;;;;;;;;;;;;;5043284;28;20035;-50
2023/06/09 08:44:26;;;;;;;;;;;;;;;;;;5031676;28;20395;-49
2023/06/09 08:46:53;;;;;;;;;;;;;;;;;;5033311;28;19923;-48
2023/06/09 08:49:19;;;;;;;;;;;;;;;;;;5026814;28;20009;-49
2023/06/09 08:51:46;;;;;;;;;;;;;;;;;;5026542;28;20389;-53
2023/06/09 08:54:13;;;;;;;;;;;;;;;;;;5023640;28;20731;-52
2023/06/09 08:56:40;;;;;;;;;;;;;;;;;;5022867;28;19992;-53
2023/06/09 08:59:06;;;;;;;;;;;;;;;;;;5016096;28;19921;-52
2023/06/09 09:01:33;;;;;;;;;;;;;;;;;;5024662;28;19948;-49
2023/06/09 09:03:58;;;;;;;;;;;;;;;;;;5023941;28;19948;-51
2023/06/09 09:06:24;;;;;;;;;;;;;;;;;;5021824;28;20385;-52
2023/06/09 09:08:50;;;;;;;;;;;;;;;;;;5024434;28;19936;-51
2023/06/09 09:11:16;;;;;;;;;;;;;;;;;;5021115;28;19992;-49
2023/06/09 09:13:42;;;;;;;;;;;;;;;;;;5024259;28;19924;-48
2023/06/09 09:16:08;;;;;;;;;;;;;;;;;;5025385;28;19924;-49
2023/06/09 09:18:34;;;;;;;;;;;;;;;;;;5024176;28;19947;-48
2023/06/09 09:21:00;;;;;;;;;;;;;;;;;;5006615;28;20028;-49
2023/06/09 09:23:26;;;;;;;;;;;;;;;;;;5027774;28;19928;-50
2023/06/09 09:25:52;;;;;;;;;;;;;;;;;;5027522;28;19913;-52
2023/06/09 09:28:19;;;;;;;;;;;;;;;;;;5029718;28;19940;-48
2023/06/09 09:30:45;;;;;;;;;;;;;;;;;;5028887;28;19993;-47
2023/06/09 09:33:11;;;;;;;;;;;;;;;;;;5009931;28;19955;-49
2023/06/09 09:35:38;;;;;;;;;;;;;;;;;;5020175;28;19952;-49
2023/06/09 09:38:04;;;;;;;;;;;;;;;;;;5029598;28;19919;-48
2023/06/09 09:40:29;;;;;;;;;;;;;;;;;;5026797;28;20007;-49
2023/06/09 09:42:55;;;;;;;;;;;;;;;;;;5028254;28;19913;-51
2023/06/09 09:45:21;;;;;;;;;;;;;;;;;;5028453;28;20024;-48
2023/06/09 09:47:47;;;;;;;;;;;;;;;;;;5030396;28;19917;-50
2023/06/09 09:50:13;;;;;;;;;;;;;;;;;;5029525;28;19917;-51
2023/06/09 09:52:40;;;;;;;;;;;;;;;;;;5029954;28;19917;-50
2023/06/09 09:55:08;;;;;;;;;;;;;;;;;;5028708;28;19909;-52
2023/06/09 09:57:35;;;;;;;;;;;;;;;;;;5028104;28;20209;-51
2023/06/09 10:00:00;;;;;;;;;;;;;;;;;;5028115;28;20347;-50
2023/06/09 10:02:26;;;;;;;;;;;;;;;;;;5028368;28;19905;-48
2023/06/09 10:04:53;;;;;;;;;;;;;;;;;;5028032;28;20042;-50
2023/06/09 10:07:19;;;;;;;;;;;;;;;;;;5028852;28;19913;-51
2023/06/09 10:09:46;;;;;;;;;;;;;;;;;;5028197;28;20391;-50
2023/06/09 10:12:12;;;;;;;;;;;;;;;;;;5027529;28;20749;-47
2023/06/09 10:14:38;;;;;;;;;;;;;;;;;;5028069;28;19959;-52
2023/06/09 10:17:04;;;;;;;;;;;;;;;;;;5027975;28;19970;-50
2023/06/09 10:19:30;;;;;;;;;;;;;;;;;;5028335;28;19940;-48
2023/06/09 10:21:56;;;;;;;;;;;;;;;;;;5028028;28;19913;-48
2023/06/09 10:24:23;;;;;;;;;;;;;;;;;;5027648;28;20277;-52
2023/06/09 10:26:49;;;;;;;;;;;;;;;;;;5028261;28;20391;-49
2023/06/09 10:29:15;;;;;;;;;;;;;;;;;;5027538;28;20007;-48
2023/06/09 10:31:41;;;;;;;;;;;;;;;;;;5027615;28;20064;-48
2023/06/09 10:34:07;;;;;;;;;;;;;;;;;;5027162;28;19959;-47
2023/06/09 10:36:33;;;;;;;;;;;;;;;;;;5027423;28;19921;-48
2023/06/09 10:38:59;;;;;;;;;;;;;;;;;;5027546;28;19913;-49
2023/06/09 10:41:25;;;;;;;;;;;;;;;;;;5027179;28;19916;-48
2023/06/09 10:43:52;;;;;;;;;;;;;;;;;;5027311;28;19913;-48
2023/06/09 10:46:17;;;;;;;;;;;;;;;;;;5027923;28;19917;-51
2023/06/09 10:48:44;;;;;;;;;;;;;;;;;;5027228;28;19913;-49
2023/06/09 10:51:10;;;;;;;;;;;;;;;;;;5027347;28;19971;-47
2023/06/09 10:53:35;;;;;;;;;;;;;;;;;;5027347;28;19912;-49
2023/06/09 10:56:01;;;;;;;;;;;;;;;;;;5027056;28;19952;-49
2023/06/09 10:58:27;;;;;;;;;;;;;;;;;;5027107;28;19931;-48
2023/06/09 11:00:53;;;;;;;;;;;;;;;;;;5027246;28;19913;-49
2023/06/09 11:03:19;;;;;;;;;;;;;;;;;;5025948;28;19920;-49
2023/06/09 11:05:45;;;;;;;;;;;;;;;;;;5024824;28;19993;-51
2023/06/09 11:08:11;;;;;;;;;;;;;;;;;;5021553;28;20004;-49
2023/06/09 11:10:37;;;;;;;;;;;;;;;;;;5026347;28;20403;-48
2023/06/09 11:13:04;;;;;;;;;;;;;;;;;;5027528;28;19952;-50
2023/06/09 11:15:30;;;;;;;;;;;;;;;;;;5027504;28;20347;-49
2023/06/09 11:17:56;;;;;;;;;;;;;;;;;;5026629;28;19919;-48
2023/06/09 11:20:23;;;;;;;;;;;;;;;;;;5026709;28;19917;-50
2023/06/09 11:22:51;;;;;;;;;;;;;;;;;;5043387;28;20035;-48
2023/06/09 11:25:16;;;;;;;;;;;;;;;;;;5025131;28;19932;-48
2023/06/09 11:27:43;;;;;;;;;;;;;;;;;;5026356;28;19913;-50
2023/06/09 11:30:20;;;;;;;;;;;;;;;;;;5026048;28;19917;-49
2023/06/09 11:32:46;;;;;;;;;;;;;;;;;;5026560;28;20416;-49
2023/06/09 11:35:13;;;;;;;;;;;;;;;;;;5022331;28;20005;-49
2023/06/09 11:37:38;;;;;;;;;;;;;;;;;;5025889;28;19923;-51
2023/06/09 11:40:05;;;;;;;;;;;;;;;;;;5025900;28;20347;-48
2023/06/09 11:42:32;;;;;;;;;;;;;;;;;;5026950;28;19909;-49
2023/06/09 11:44:58;;;;;;;;;;;;;;;;;;5026311;28;19924;-51
2023/06/09 11:47:24;;;;;;;;;;;;;;;;;;5026039;28;20020;-49
2023/06/09 11:49:49;;;;;;;;;;;;;;;;;;5026201;28;19913;-48
2023/06/09 11:52:15;;;;;;;;;;;;;;;;;;5026108;28;19992;-52
2023/06/09 11:54:41;;;;;;;;;;;;;;;;;;5025993;28;20330;-48
2023/06/09 11:57:07;;;;;;;;;;;;;;;;;;5026536;28;19951;-50
2023/06/09 11:59:34;;;;;;;;;;;;;;;;;;5025918;28;19917;-51
2023/06/09 12:02:00;;;;;;;;;;;;;;;;;;5026696;28;19913;-52
2023/06/09 12:04:26;;;;;;;;;;;;;;;;;;5025975;28;19913;-49
2023/06/09 12:06:53;;;;;;;;;;;;;;;;;;5025932;28;19917;-49
2023/06/09 12:09:20;;;;;;;;;;;;;;;;;;5025604;28;19921;-49
2023/06/09 12:11:46;;;;;;;;;;;;;;;;;;5025868;28;19909;-48
2023/06/09 12:14:13;;;;;;;;;;;;;;;;;;5025643;28;20381;-51
2023/06/09 12:16:40;;;;;;;;;;;;;;;;;;5025787;28;19920;-51
2023/06/09 12:19:05;;;;;;;;;;;;;;;;;;5026016;28;20206;-48
2023/06/09 12:21:32;;;;;;;;;;;;;;;;;;5026325;28;19971;-49
2023/06/09 12:23:58;;;;;;;;;;;;;;;;;;5026142;28;19968;-48
2023/06/09 12:26:26;;;;;;;;;;;;;;;;;;5025572;28;19967;-50
2023/06/09 12:28:51;;;;;;;;;;;;;;;;;;5025677;28;19916;-47
2023/06/09 12:31:18;;;;;;;;;;;;;;;;;;5025789;28;19909;-51
2023/06/09 12:33:45;;;;;;;;;;;;;;;;;;5025644;28;19963;-50
2023/06/09 12:36:11;;;;;;;;;;;;;;;;;;5025708;28;19948;-51
2023/06/09 12:38:39;;;;;;;;;;;;;;;;;;5025529;28;20176;-48
2023/06/09 12:41:06;;;;;;;;;;;;;;;;;;5025502;28;20287;-49
2023/06/09 12:43:32;;;;;;;;;;;;;;;;;;5025957;28;19921;-50
2023/06/09 12:45:58;;;;;;;;;;;;;;;;;;5026338;28;20012;-47
2023/06/09 12:48:24;;;;;;;;;;;;;;;;;;5025634;28;20375;-49
2023/06/09 12:50:50;;;;;;;;;;;;;;;;;;5025599;28;19917;-49
2023/06/09 12:53:16;;;;;;;;;;;;;;;;;;5025348;28;19913;-48
2023/06/09 12:55:42;;;;;;;;;;;;;;;;;;5025159;28;20347;-49
2023/06/09 12:58:09;;;;;;;;;;;;;;;;;;5026951;28;19910;-49
2023/06/09 13:00:35;;;;;;;;;;;;;;;;;;5029368;28;19959;-50
2023/06/09 13:03:00;;;;;;;;;;;;;;;;;;5028823;28;20507;-50
2023/06/09 13:05:32;;;;;;;;;;;;;;;;;;5029676;28;19909;-50
2023/06/09 13:07:59;;;;;;;;;;;;;;;;;;5029071;28;19944;-48
2023/06/09 13:10:25;;;;;;;;;;;;;;;;;;5028815;28;19995;-49
2023/06/09 13:12:52;;;;;;;;;;;;;;;;;;5029155;28;20420;-50
2023/06/09 13:15:18;;;;;;;;;;;;;;;;;;5028930;28;20379;-50
2023/06/09 13:17:44;;;;;;;;;;;;;;;;;;5029135;28;19913;-48
2023/06/09 13:20:10;;;;;;;;;;;;;;;;;;5029070;28;20008;-50
2023/06/09 13:22:36;;;;;;;;;;;;;;;;;;5011056;28;20000;-49
2023/06/09 13:25:02;;;;;;;;;;;;;;;;;;5029365;28;20342;-48
2023/06/09 13:27:28;;;;;;;;;;;;;;;;;;5028951;28;19909;-48
2023/06/09 13:29:54;;;;;;;;;;;;;;;;;;5028941;28;20490;-48
2023/06/09 13:32:20;;;;;;;;;;;;;;;;;;5028759;28;19962;-48
2023/06/09 13:34:47;;;;;;;;;;;;;;;;;;5029015;28;20380;-49
2023/06/09 13:37:13;;;;;;;;;;;;;;;;;;5028721;28;19956;-47
2023/06/09 13:39:39;;;;;;;;;;;;;;;;;;5028401;28;20008;-48
2023/06/09 13:42:06;;;;;;;;;;;;;;;;;;5010655;28;19984;-50
2023/06/09 13:44:32;;;;;;;;;;;;;;;;;;5029094;28;20012;-49
2023/06/09 13:46:59;;;;;;;;;;;;;;;;;;5028776;28;20004;-46
2023/06/09 13:49:25;;;;;;;;;;;;;;;;;;5028528;28;20374;-48
2023/06/09 13:51:52;;;;;;;;;;;;;;;;;;5028371;28;19913;-48
2023/06/09 13:54:18;;;;;;;;;;;;;;;;;;5028116;28;20043;-45
2023/06/09 13:56:44;;;;;;;;;;;;;;;;;;5028234;28;20007;-50
2023/06/09 13:59:11;;;;;;;;;;;;;;;;;;5028272;28;19917;-47
2023/06/09 14:01:38;;;;;;;;;;;;;;;;;;5028384;28;19920;-49
2023/06/09 14:04:05;;;;;;;;;;;;;;;;;;5027985;28;19920;-47
2023/06/09 14:06:31;;;;;;;;;;;;;;;;;;5028921;28;19921;-50
2023/06/09 14:08:57;;;;;;;;;;;;;;;;;;5027602;28;19913;-50
2023/06/09 14:11:25;;;;;;;;;;;;;;;;;;5028019;28;20031;-48
2023/06/09 14:13:50;;;;;;;;;;;;;;;;;;5027995;28;19913;-48
2023/06/09 14:16:16;;;;;;;;;;;;;;;;;;5028178;28;19935;-46
2023/06/09 14:18:42;;;;;;;;;;;;;;;;;;5028035;28;19916;-49
2023/06/09 14:21:08;;;;;;;;;;;;;;;;;;5027872;28;19909;-49
2023/06/09 14:23:38;;;;;;;;;;;;;;;;;;5027634;28;19972;-50
2023/06/09 14:26:04;;;;;;;;;;;;;;;;;;5027874;28;19936;-48
2023/06/09 14:28:31;;;;;;;;;;;;;;;;;;5028200;28;20485;-47
2023/06/09 14:30:57;;;;;;;;;;;;;;;;;;5027850;28;20358;-50
2023/06/09 14:33:23;;;;;;;;;;;;;;;;;;5027498;28;19909;-49
2023/06/09 14:35:49;;;;;;;;;;;;;;;;;;5027758;28;19916;-46
2023/06/09 14:38:15;;;;;;;;;;;;;;;;;;5027247;28;20011;-51
2023/06/09 14:40:41;;;;;;;;;;;;;;;;;;5027463;28;19919;-48
2023/06/09 14:43:09;;;;;;;;;;;;;;;;;;5027616;28;19909;-48
2023/06/09 14:45:36;;;;;;;;;;;;;;;;;;5027541;28;19913;-47
2023/06/09 14:48:02;;;;;;;;;;;;;;;;;;5027686;28;19909;-47
2023/06/09 14:50:27;;;;;;;;;;;;;;;;;;5027319;28;19913;-51
2023/06/09 14:52:56;;;;;;;;;;;;;;;;;;5027367;28;19910;-49
2023/06/09 14:55:23;;;;;;;;;;;;;;;;;;5027152;28;20319;-52
2023/06/09 14:57:49;;;;;;;;;;;;;;;;;;5027230;28;19909;-48
2023/06/09 15:00:15;;;;;;;;;;;;;;;;;;5026865;28;19913;-49
2023/06/09 15:02:42;;;;;;;;;;;;;;;;;;5026963;28;19928;-50
2023/06/09 15:05:07;;;;;;;;;;;;;;;;;;5026855;28;19917;-49
2023/06/09 15:07:33;;;;;;;;;;;;;;;;;;5027589;28;19909;-51
2023/06/09 15:09:59;;;;;;;;;;;;;;;;;;5027149;28;20118;-50
2023/06/09 15:12:25;;;;;;;;;;;;;;;;;;5026869;28;19912;-51
2023/06/09 15:14:51;;;;;;;;;;;;;;;;;;5026844;28;19944;-50
2023/06/09 15:17:18;;;;;;;;;;;;;;;;;;5026483;28;19909;-53
2023/06/09 15:19:44;;;;;;;;;;;;;;;;;;5026578;28;19916;-48
2023/06/09 15:22:10;;;;;;;;;;;;;;;;;;5008079;28;19922;-48
2023/06/09 15:24:35;;;;;;;;;;;;;;;;;;5026155;28;19917;-53
2023/06/09 15:27:01;;;;;;;;;;;;;;;;;;5026842;28;19917;-53
2023/06/09 15:29:28;;;;;;;;;;;;;;;;;;5026917;28;20424;-52
2023/06/09 15:31:54;;;;;;;;;;;;;;;;;;5026407;28;19917;-50
2023/06/09 15:34:21;;;;;;;;;;;;;;;;;;5014573;28;19925;-49
2023/06/09 15:36:48;;;;;;;;;;;;;;;;;;5006791;28;19909;-49
2023/06/09 15:39:14;;;;;;;;;;;;;;;;;;5023558;28;19948;-49
2023/06/09 15:41:41;;;;;;;;;;;;;;;;;;5026548;28;19917;-48
2023/06/09 15:44:07;;;;;;;;;;;;;;;;;;5026338;28;19914;-49
2023/06/09 15:46:34;;;;;;;;;;;;;;;;;;5027052;28;19916;-49
2023/06/09 15:49:01;;;;;;;;;;;;;;;;;;5026856;28;19962;-51
2023/06/09 15:51:27;;;;;;;;;;;;;;;;;;5026539;28;19937;-49
2023/06/09 15:53:54;;;;;;;;;;;;;;;;;;5026458;28;20392;-49
2023/06/09 15:56:21;;;;;;;;;;;;;;;;;;5026198;28;20316;-49
2023/06/09 15:58:47;;;;;;;;;;;;;;;;;;5026020;28;19913;-49
2023/06/09 16:01:13;;;;;;;;;;;;;;;;;;5025756;28;20423;-50
2023/06/09 16:03:40;;;;;;;;;;;;;;;;;;5026085;28;19920;-46
2023/06/09 16:06:05;;;;;;;;;;;;;;;;;;5025894;28;20206;-49
2023/06/09 16:08:31;;;;;;;;;;;;;;;;;;5026207;28;19972;-48
2023/06/09 16:10:57;;;;;;;;;;;;;;;;;;5025761;28;20415;-49
2023/06/09 16:13:24;;;;;;;;;;;;;;;;;;5025490;28;19913;-47
2023/06/09 16:15:50;;;;;;;;;;;;;;;;;;5025535;28;20671;-48
2023/06/09 16:18:21;;;;;;;;;;;;;;;;;;5025309;28;20078;-49
2023/06/09 16:20:47;;;;;;;;;;;;;;;;;;5025798;28;19910;-50
2023/06/09 16:23:14;;;;;;;;;;;;;;;;;;5025351;28;20265;-46
2023/06/09 16:25:40;;;;;;;;;;;;;;;;;;5005649;28;20322;-50
2023/06/09 16:28:06;;;;;;;;;;;;;;;;;;5028635;28;19917;-49
2023/06/09 16:30:35;;;;;;;;;;;;;;;;;;5024773;28;19921;-47
2023/06/09 16:33:01;;;;;;;;;;;;;;;;;;5004607;28;19913;-50
2023/06/09 16:35:28;;;;;;;;;;;;;;;;;;5004706;28;19932;-46
2023/06/09 16:37:54;;;;;;;;;;;;;;;;;;5004814;28;20089;-47
2023/06/09 16:40:20;;;;;;;;;;;;;;;;;;5004805;28;20078;-46
2023/06/09 16:42:47;;;;;;;;;;;;;;;;;;5007043;28;19921;-49
2023/06/09 16:45:14;;;;;;;;;;;;;;;;;;5014349;28;19914;-47
2023/06/09 16:47:40;;;;;;;;;;;;;;;;;;5004960;28;20443;-49
2023/06/09 16:50:06;;;;;;;;;;;;;;;;;;5003592;28;20131;-48
2023/06/09 16:52:34;;;;;;;;;;;;;;;;;;5024683;28;19970;-46
2023/06/09 16:55:00;;;;;;;;;;;;;;;;;;5024671;28;19971;-47
2023/06/09 16:57:25;;;;;;;;;;;;;;;;;;5023895;28;19928;-50
2023/06/09 16:59:51;;;;;;;;;;;;;;;;;;5021687;28;20331;-50
2023/06/09 17:02:20;;;;;;;;;;;;;;;;;;5006638;28;19909;-47
2023/06/09 17:04:46;;;;;;;;;;;;;;;;;;5024015;28;19950;-47
2023/06/09 17:07:13;;;;;;;;;;;;;;;;;;5015306;28;19921;-47
2023/06/09 17:09:39;;;;;;;;;;;;;;;;;;5018998;28;19949;-45
2023/06/09 17:12:06;;;;;;;;;;;;;;;;;;5022095;28;19916;-48
2023/06/09 17:14:33;;;;;;;;;;;;;;;;;;5004859;28;20393;-48
2023/06/09 17:16:59;;;;;;;;;;;;;;;;;;5004991;28;19909;-51
2023/06/09 17:19:25;;;;;;;;;;;;;;;;;;5004037;28;19910;-46
2023/06/09 17:21:51;;;;;;;;;;;;;;;;;;5004489;28;19913;-50
2023/06/09 17:24:17;;;;;;;;;;;;;;;;;;5004429;28;19913;-50
2023/06/09 17:26:43;;;;;;;;;;;;;;;;;;4988491;28;19929;-51
2023/06/09 17:29:09;;;;;;;;;;;;;;;;;;5004164;28;19933;-49
2023/06/09 17:31:36;;;;;;;;;;;;;;;;;;5014863;28;19917;-47
2023/06/09 17:34:02;;;;;;;;;;;;;;;;;;5024741;28;19913;-47
2023/06/09 17:36:29;;;;;;;;;;;;;;;;;;5017786;28;19917;-47
2023/06/09 17:38:55;;;;;;;;;;;;;;;;;;5004236;28;19953;-47
2023/06/09 17:41:21;;;;;;;;;;;;;;;;;;5003867;28;20035;-46
2023/06/09 17:43:48;;;;;;;;;;;;;;;;;;5005210;28;19925;-48
2023/06/09 17:46:14;;;;;;;;;;;;;;;;;;5007649;28;19909;-49
2023/06/09 17:48:43;;;;;;;;;;;;;;;;;;5014060;28;19920;-47
2023/06/09 17:51:09;;;;;;;;;;;;;;;;;;5007352;28;19917;-50
2023/06/09 17:53:35;;;;;;;;;;;;;;;;;;5007722;28;19940;-47
2023/06/09 17:56:01;;;;;;;;;;;;;;;;;;5007990;28;19910;-49
2023/06/09 17:58:27;;;;;;;;;;;;;;;;;;5007195;28;19964;-48
2023/06/09 18:00:54;;;;;;;;;;;;;;;;;;5008554;28;19917;-48
2023/06/09 18:03:20;;;;;;;;;;;;;;;;;;5026046;28;19917;-47
2023/06/09 18:05:45;;;;;;;;;;;;;;;;;;5025147;28;19967;-49
2023/06/09 18:08:11;;;;;;;;;;;;;;;;;;5026834;28;20585;-47
2023/06/09 18:10:37;;;;;;;;;;;;;;;;;;5007666;28;19927;-50
2023/06/09 18:13:04;;;;;;;;;;;;;;;;;;5026808;28;19921;-50
2023/06/09 18:15:31;;;;;;;;;;;;;;;;;;5027158;28;20361;-49
2023/06/09 18:17:57;;;;;;;;;;;;;;;;;;5025723;28;19924;-49
2023/06/09 18:20:23;;;;;;;;;;;;;;;;;;5026133;28;20032;-51
2023/06/09 18:22:49;;;;;;;;;;;;;;;;;;5026634;28;20217;-49
2023/06/09 18:25:16;;;;;;;;;;;;;;;;;;5026879;28;20008;-47
2023/06/09 18:27:43;;;;;;;;;;;;;;;;;;5026656;28;19913;-52
2023/06/09 18:30:09;;;;;;;;;;;;;;;;;;5025077;28;20008;-49
2023/06/09 18:32:35;;;;;;;;;;;;;;;;;;5026381;28;19912;-46
2023/06/09 18:35:02;;;;;;;;;;;;;;;;;;5025914;28;20368;-47
2023/06/09 18:37:28;;;;;;;;;;;;;;;;;;5007971;28;19917;-46
2023/06/09 18:39:54;;;;;;;;;;;;;;;;;;5007406;28;20378;-46
2023/06/09 18:42:21;;;;;;;;;;;;;;;;;;5008051;28;19962;-47
2023/06/09 18:44:47;;;;;;;;;;;;;;;;;;5026609;28;20352;-45
2023/06/09 18:47:14;;;;;;;;;;;;;;;;;;5026590;28;19935;-48
2023/06/09 18:49:40;;;;;;;;;;;;;;;;;;5000038;28;19924;-46
2023/06/09 18:52:06;;;;;;;;;;;;;;;;;;5026209;28;19909;-45
2023/06/09 18:54:32;;;;;;;;;;;;;;;;;;5014722;28;19921;-46
2023/06/09 18:56:58;;;;;;;;;;;;;;;;;;4988081;28;20056;-46
2023/06/09 18:59:25;;;;;;;;;;;;;;;;;;5008036;28;19918;-45
2023/06/09 19:01:51;;;;;;;;;;;;;;;;;;5008200;28;20508;-46
2023/06/09 19:04:17;;;;;;;;;;;;;;;;;;5013443;28;19928;-47
2023/06/09 19:06:43;;;;;;;;;;;;;;;;;;4988487;28;19972;-46
2023/06/09 19:09:09;;;;;;;;;;;;;;;;;;5006108;28;19917;-45
2023/06/09 19:11:36;;;;;;;;;;;;;;;;;;5019414;28;19914;-45
2023/06/09 19:14:05;;;;;;;;;;;;;;;;;;5026361;28;19917;-45
2023/06/09 19:16:31;;;;;;;;;;;;;;;;;;5024360;28;19914;-47
2023/06/09 19:18:56;;;;;;;;;;;;;;;;;;5025325;28;19920;-45
2023/06/09 19:21:23;;;;;;;;;;;;;;;;;;5007513;28;19913;-46
2023/06/09 19:23:54;;;;;;;;;;;;;;;;;;5025773;28;19913;-48
2023/06/09 19:26:20;;;;;;;;;;;;;;;;;;5025273;28;19948;-44
2023/06/09 19:28:46;;;;;;;;;;;;;;;;;;5025372;28;19959;-44
2023/06/09 19:31:12;;;;;;;;;;;;;;;;;;5007625;28;20392;-48
2023/06/09 19:33:38;;;;;;;;;;;;;;;;;;5025090;28;19920;-49
2023/06/09 19:36:05;;;;;;;;;;;;;;;;;;5025699;28;19913;-46
2023/06/09 19:38:31;;;;;;;;;;;;;;;;;;5025615;28;19968;-44
2023/06/09 19:40:57;;;;;;;;;;;;;;;;;;5025726;28;20428;-44
2023/06/09 19:43:23;;;;;;;;;;;;;;;;;;5024962;28;19916;-44
2023/06/09 19:45:50;;;;;;;;;;;;;;;;;;5025335;28;20000;-43
2023/06/09 19:48:18;;;;;;;;;;;;;;;;;;5020889;28;19921;-43
2023/06/09 19:50:44;;;;;;;;;;;;;;;;;;5014507;28;20012;-45
2023/06/09 19:53:10;;;;;;;;;;;;;;;;;;5005294;28;19920;-45
2023/06/09 19:55:36;;;;;;;;;;;;;;;;;;5022396;28;19909;-43
2023/06/09 19:58:03;;;;;;;;;;;;;;;;;;5025335;28;20418;-43
2023/06/09 20:00:29;;;;;;;;;;;;;;;;;;5025262;28;20303;-43
2023/06/09 20:02:56;;;;;;;;;;;;;;;;;;5025317;28;19920;-46
2023/06/09 20:05:23;;;;;;;;;;;;;;;;;;5023664;28;19924;-43
2023/06/09 20:07:49;;;;;;;;;;;;;;;;;;5024669;28;19909;-45
2023/06/09 20:10:15;;;;;;;;;;;;;;;;;;5024759;28;20281;-42
2023/06/09 20:12:40;;;;;;;;;;;;;;;;;;5024529;28;19936;-44
2023/06/09 20:15:06;;;;;;;;;;;;;;;;;;5024940;28;19931;-45
2023/06/09 20:17:32;;;;;;;;;;;;;;;;;;5007514;28;20008;-43
2023/06/09 20:19:59;;;;;;;;;;;;;;;;;;5024781;28;19920;-43
2023/06/09 20:22:25;;;;;;;;;;;;;;;;;;5024398;28;20430;-45
2023/06/09 20:24:51;;;;;;;;;;;;;;;;;;5024423;28;19917;-47
2023/06/09 20:27:17;;;;;;;;;;;;;;;;;;5006544;28;19913;-43
2023/06/09 20:29:43;;;;;;;;;;;;;;;;;;5024309;28;19929;-44
2023/06/09 20:32:09;;;;;;;;;;;;;;;;;;5024488;28;19909;-45
2023/06/09 20:34:35;;;;;;;;;;;;;;;;;;5006535;28;19916;-43
2023/06/09 20:37:03;;;;;;;;;;;;;;;;;;5025379;28;19909;-44
2023/06/09 20:39:29;;;;;;;;;;;;;;;;;;5024936;28;20324;-46
2023/06/09 20:41:55;;;;;;;;;;;;;;;;;;5024394;28;19913;-46
2023/06/09 20:44:22;;;;;;;;;;;;;;;;;;5024579;28;19922;-43
2023/06/09 20:46:49;;;;;;;;;;;;;;;;;;5007068;28;19935;-43
2023/06/09 20:49:16;;;;;;;;;;;;;;;;;;5024138;28;19915;-45
2023/06/09 20:51:42;;;;;;;;;;;;;;;;;;5024309;28;20007;-44
2023/06/09 20:54:08;;;;;;;;;;;;;;;;;;5024482;28;20552;-45
2023/06/09 20:56:34;;;;;;;;;;;;;;;;;;5024187;28;19913;-44
2023/06/09 20:59:00;;;;;;;;;;;;;;;;;;5024984;28;19936;-45
2023/06/09 21:01:25;;;;;;;;;;;;;;;;;;5024099;28;19919;-45
2023/06/09 21:03:52;;;;;;;;;;;;;;;;;;5024410;28;19913;-44
2023/06/09 21:06:21;;;;;;;;;;;;;;;;;;5024328;28;19983;-44
2023/06/09 21:08:47;;;;;;;;;;;;;;;;;;5024135;28;19940;-45
2023/06/09 21:11:12;;;;;;;;;;;;;;;;;;5006562;28;20478;-44
2023/06/09 21:13:38;;;;;;;;;;;;;;;;;;5023924;28;19913;-44
2023/06/09 21:16:06;;;;;;;;;;;;;;;;;;5019706;28;20392;-44
2023/06/09 21:18:32;;;;;;;;;;;;;;;;;;5025575;28;20299;-43
2023/06/09 21:20:59;;;;;;;;;;;;;;;;;;5026237;28;19920;-46
2023/06/09 21:23:25;;;;;;;;;;;;;;;;;;5007719;28;19910;-44
2023/06/09 21:25:51;;;;;;;;;;;;;;;;;;5011537;28;19913;-44
2023/06/09 21:28:18;;;;;;;;;;;;;;;;;;5027745;28;20295;-46
2023/06/09 21:30:45;;;;;;;;;;;;;;;;;;5027474;28;20000;-43
2023/06/09 21:33:11;;;;;;;;;;;;;;;;;;5027980;28;20263;-44
2023/06/09 21:35:38;;;;;;;;;;;;;;;;;;5027285;28;19909;-45
2023/06/09 21:38:04;;;;;;;;;;;;;;;;;;5027826;28;19913;-44
2023/06/09 21:40:31;;;;;;;;;;;;;;;;;;5027762;28;20008;-44
2023/06/09 21:42:57;;;;;;;;;;;;;;;;;;5027224;28;20399;-47
2023/06/09 21:45:23;;;;;;;;;;;;;;;;;;5026350;28;19924;-46